createdAt,value
2019-02-20T00:01:23.422Z,3.35
2019-02-20T00:03:50.286Z,3.49
2019-02-20T00:06:17.128Z,3.21
2019-02-20T00:08:43.978Z,3.06
2019-02-20T00:11:10.817Z,2.91
2019-02-20T00:13:37.680Z,3.15
2019-02-20T00:16:04.520Z,3.15
2019-02-20T00:18:31.375Z,3.03
2019-02-20T00:20:58.213Z,3.04
2019-02-20T00:23:25.063Z,2.96
2019-02-20T00:25:51.899Z,2.62
2019-02-20T00:28:18.766Z,2.49
2019-02-20T00:30:45.605Z,2.28
2019-02-20T00:33:12.454Z,2.19
2019-02-20T00:35:39.277Z,1.96
2019-02-20T00:38:06.130Z,2.36
2019-02-20T00:40:32.977Z,2.53
2019-02-20T00:42:59.830Z,2.33
2019-02-20T00:45:32.469Z,2.20
2019-02-20T00:48:05.086Z,2.31
2019-02-20T00:50:32.030Z,2.29
2019-02-20T00:53:04.473Z,2.27
2019-02-20T00:55:31.310Z,2.84
2019-02-20T00:57:58.171Z,2.54
2019-02-20T01:00:25.011Z,2.27
2019-02-20T01:02:51.854Z,2.23
2019-02-20T01:05:18.690Z,2.35
2019-02-20T01:07:45.552Z,2.22
2019-02-20T01:10:12.390Z,2.15
2019-02-20T01:12:39.226Z,2.31
2019-02-20T01:15:06.685Z,2.27
2019-02-20T01:17:33.444Z,2.28
2019-02-20T01:20:00.445Z,2.50
2019-02-20T01:22:27.150Z,2.40
2019-02-20T01:24:54.010Z,2.46
2019-02-20T01:27:20.834Z,2.91
2019-02-20T01:29:47.698Z,2.73
2019-02-20T01:32:14.531Z,2.61
2019-02-20T01:34:41.397Z,2.77
2019-02-20T01:37:08.225Z,2.58
2019-02-20T01:39:35.082Z,2.58
2019-02-20T01:42:01.954Z,2.46
2019-02-20T01:44:28.802Z,2.42
2019-02-20T01:46:55.643Z,2.14
2019-02-20T01:49:22.581Z,2.13
2019-02-20T01:51:49.423Z,2.15
2019-02-20T01:54:16.277Z,2.24
2019-02-20T01:56:43.093Z,2.12
2019-02-20T01:59:09.942Z,2.27
2019-02-20T02:01:36.783Z,2.41
2019-02-20T02:04:03.626Z,2.36
2019-02-20T02:06:30.452Z,2.57
2019-02-20T02:08:57.295Z,2.58
2019-02-20T02:11:24.129Z,2.51
2019-02-20T02:13:50.978Z,2.77
2019-02-20T02:16:17.805Z,2.75
2019-02-20T02:18:44.658Z,2.92
2019-02-20T02:21:11.526Z,2.92
2019-02-20T02:23:38.386Z,3.26
2019-02-20T02:26:10.787Z,2.98
2019-02-20T02:28:32.070Z,2.93
2019-02-20T02:30:58.906Z,2.92
2019-02-20T02:33:25.763Z,2.91
2019-02-20T02:35:52.623Z,2.56
2019-02-20T02:38:19.459Z,2.83
2019-02-20T02:40:46.314Z,2.75
2019-02-20T02:43:13.143Z,2.63
2019-02-20T02:45:40.005Z,2.64
2019-02-20T02:48:06.835Z,2.86
2019-02-20T02:50:33.749Z,2.64
2019-02-20T02:53:00.600Z,2.33
2019-02-20T02:55:27.446Z,2.59
2019-02-20T02:57:54.275Z,2.92
2019-02-20T03:00:21.152Z,2.52
2019-02-20T03:02:47.969Z,2.80
2019-02-20T03:05:14.884Z,2.11
2019-02-20T03:07:41.717Z,2.25
2019-02-20T03:10:08.577Z,2.28
2019-02-20T03:12:35.418Z,2.25
2019-02-20T03:15:02.284Z,2.84
2019-02-20T03:17:29.106Z,2.50
2019-02-20T03:19:55.947Z,2.76
2019-02-20T03:22:22.809Z,2.44
2019-02-20T03:24:49.660Z,2.38
2019-02-20T03:27:16.505Z,2.27
2019-02-20T03:29:43.356Z,2.75
2019-02-20T03:32:10.183Z,2.28
2019-02-20T03:34:37.039Z,2.35
2019-02-20T03:37:04.075Z,2.71
2019-02-20T03:39:30.911Z,2.91
2019-02-20T03:41:57.759Z,2.19
2019-02-20T03:44:24.612Z,2.19
2019-02-20T03:46:51.489Z,2.44
2019-02-20T03:49:18.282Z,2.58
2019-02-20T03:51:45.121Z,1.94
2019-02-20T03:54:11.966Z,2.47
2019-02-20T03:56:38.790Z,2.53
2019-02-20T03:59:05.626Z,2.18
2019-02-20T04:01:32.487Z,2.64
2019-02-20T04:03:59.316Z,1.65
2019-02-20T04:06:26.156Z,2.23
2019-02-20T04:08:52.986Z,1.81
2019-02-20T04:11:19.830Z,2.03
2019-02-20T04:13:46.680Z,1.86
2019-02-20T04:16:13.520Z,2.23
2019-02-20T04:18:40.383Z,1.84
2019-02-20T04:21:07.246Z,2.17
2019-02-20T04:23:34.210Z,1.56
2019-02-20T04:26:01.034Z,1.73
2019-02-20T04:28:27.892Z,1.44
2019-02-20T04:30:54.715Z,1.49
2019-02-20T04:33:21.575Z,1.32
2019-02-20T04:35:48.389Z,1.60
2019-02-20T04:38:15.238Z,1.24
2019-02-20T04:40:42.077Z,1.33
2019-02-20T04:43:08.916Z,1.14
2019-02-20T04:45:35.833Z,1.48
2019-02-20T04:48:02.715Z,1.34
2019-02-20T04:50:29.563Z,1.68
2019-02-20T04:52:56.390Z,1.96
2019-02-20T04:55:23.235Z,2.06
2019-02-20T04:58:10.202Z,1.94
2019-02-20T05:00:37.032Z,2.36
2019-02-20T05:03:03.881Z,1.72
2019-02-20T05:05:30.714Z,2.09
2019-02-20T05:07:57.567Z,1.69
2019-02-20T05:10:24.401Z,1.83
2019-02-20T05:12:51.243Z,1.27
2019-02-20T05:15:18.103Z,1.72
2019-02-20T05:17:44.995Z,1.11
2019-02-20T05:20:11.845Z,1.66
2019-02-20T05:22:39.810Z,1.88
2019-02-20T05:25:06.710Z,1.93
2019-02-20T05:27:33.482Z,1.98
2019-02-20T05:30:00.475Z,1.31
2019-02-20T05:32:27.179Z,1.49
2019-02-20T05:34:54.028Z,1.53
2019-02-20T05:37:20.859Z,1.10
2019-02-20T05:39:47.715Z,1.28
2019-02-20T05:42:14.546Z,1.31
2019-02-20T05:44:41.398Z,1.55
2019-02-20T05:47:08.222Z,0.76
2019-02-20T05:49:35.113Z,1.09
2019-02-20T05:52:01.997Z,0.74
2019-02-20T05:54:34.675Z,1.38
2019-02-20T05:56:55.691Z,1.10
2019-02-20T05:59:22.534Z,1.58
2019-02-20T06:01:49.375Z,1.62
2019-02-20T06:04:16.398Z,1.01
2019-02-20T06:06:43.226Z,1.52
2019-02-20T06:09:10.078Z,1.11
2019-02-20T06:11:36.907Z,1.63
2019-02-20T06:14:03.766Z,1.23
2019-02-20T06:16:30.594Z,1.57
2019-02-20T06:18:57.446Z,1.59
2019-02-20T06:21:24.278Z,1.00
2019-02-20T06:23:51.131Z,1.72
2019-02-20T06:26:17.961Z,0.99
2019-02-20T06:28:44.836Z,1.37
2019-02-20T06:31:11.675Z,0.85
2019-02-20T06:34:37.873Z,0.70
2019-02-20T06:37:04.705Z,1.14
2019-02-20T06:39:31.564Z,0.99
2019-02-20T06:41:58.453Z,1.11
2019-02-20T06:44:25.254Z,1.56
2019-02-20T06:46:52.085Z,1.17
2019-02-20T06:49:18.963Z,1.36
2019-02-20T06:51:45.826Z,0.82
2019-02-20T06:54:12.687Z,1.31
2019-02-20T06:56:39.527Z,0.97
2019-02-20T06:59:06.375Z,1.37
2019-02-20T07:01:33.218Z,0.93
2019-02-20T07:04:00.077Z,1.60
2019-02-20T07:06:50.052Z,1.27
2019-02-20T07:09:46.208Z,2.07
2019-02-20T07:12:39.553Z,1.48
2019-02-20T07:15:24.606Z,1.54
2019-02-20T07:18:04.672Z,1.79
2019-02-20T07:21:02.487Z,2.23
2019-02-20T07:23:53.851Z,2.16
2019-02-20T07:26:31.423Z,2.22
2019-02-20T07:29:13.464Z,2.30
2019-02-20T07:31:40.462Z,2.36
2019-02-20T07:34:07.511Z,2.59
2019-02-20T07:36:34.347Z,2.58
2019-02-20T07:39:01.311Z,3.26
2019-02-20T07:41:28.146Z,2.92
2019-02-20T07:43:55.075Z,2.97
2019-02-20T07:46:21.918Z,3.04
2019-02-20T07:48:48.778Z,2.96
2019-02-20T07:51:15.633Z,3.68
2019-02-20T07:53:42.486Z,3.33
2019-02-20T07:56:09.326Z,3.48
2019-02-20T07:58:36.177Z,3.63
2019-02-20T08:01:03.027Z,3.72
2019-02-20T08:03:29.916Z,4.41
2019-02-20T08:05:56.726Z,4.26
2019-02-20T08:08:23.570Z,4.42
2019-02-20T08:10:50.437Z,4.37
2019-02-20T08:13:17.314Z,4.24
2019-02-20T08:15:44.162Z,4.37
2019-02-20T08:18:10.994Z,4.93
2019-02-20T08:20:37.866Z,4.75
2019-02-20T08:23:04.714Z,4.87
2019-02-20T08:25:31.597Z,5.18
2019-02-20T08:27:58.441Z,4.98
2019-02-20T08:30:25.307Z,5.21
2019-02-20T08:32:52.151Z,5.44
2019-02-20T08:35:19.000Z,6.10
2019-02-20T08:37:45.838Z,6.08
2019-02-20T08:40:14.762Z,6.05
2019-02-20T08:42:41.595Z,6.62
2019-02-20T08:45:08.806Z,6.46
2019-02-20T08:47:35.666Z,6.75
2019-02-20T08:50:02.581Z,6.64
2019-02-20T08:52:29.430Z,6.69
2019-02-20T08:54:56.330Z,6.59
2019-02-20T08:57:23.146Z,6.66
2019-02-20T08:59:51.735Z,6.72
2019-02-20T09:02:16.871Z,6.59
2019-02-20T09:04:43.755Z,6.52
2019-02-20T09:07:10.615Z,6.61
2019-02-20T09:09:37.490Z,6.54
2019-02-20T09:12:04.343Z,6.70
2019-02-20T09:14:31.209Z,6.91
2019-02-20T09:16:58.071Z,7.03
2019-02-20T09:19:24.937Z,7.07
2019-02-20T09:21:51.785Z,7.05
2019-02-20T09:24:18.664Z,7.30
2019-02-20T09:26:45.518Z,7.44
2019-02-20T09:29:12.371Z,7.63
2019-02-20T09:31:39.239Z,7.72
2019-02-20T09:34:06.075Z,7.35
2019-02-20T09:36:32.941Z,7.32
2019-02-20T09:39:25.891Z,7.60
2019-02-20T09:41:52.747Z,8.00
2019-02-20T09:44:19.590Z,7.94
2019-02-20T09:46:46.475Z,8.27
2019-02-20T09:49:13.332Z,8.17
2019-02-20T09:51:40.234Z,8.38
2019-02-20T09:54:07.082Z,9.17
2019-02-20T09:56:34.162Z,9.11
2019-02-20T09:59:01.007Z,9.41
2019-02-20T10:01:27.874Z,9.55
2019-02-20T10:03:54.735Z,9.79
2019-02-20T10:06:21.605Z,9.43
2019-02-20T10:08:48.454Z,9.53
2019-02-20T10:11:15.315Z,9.86
2019-02-20T10:13:42.209Z,9.95
2019-02-20T10:16:09.029Z,10.11
2019-02-20T10:18:35.861Z,10.00
2019-02-20T10:21:02.711Z,10.50
2019-02-20T10:23:29.610Z,10.79
2019-02-20T10:26:00.989Z,10.66
2019-02-20T10:28:23.309Z,10.98
2019-02-20T10:30:50.230Z,11.06
2019-02-20T10:33:17.054Z,10.72
2019-02-20T10:35:43.934Z,10.42
2019-02-20T10:38:10.771Z,10.86
2019-02-20T10:40:37.634Z,11.17
2019-02-20T10:43:05.221Z,11.68
2019-02-20T10:45:32.063Z,11.71
2019-02-20T10:47:58.895Z,11.63
2019-02-20T10:50:25.777Z,11.32
2019-02-20T10:52:52.618Z,11.87
2019-02-20T10:55:19.474Z,10.93
2019-02-20T10:57:46.310Z,10.49
2019-02-20T11:00:23.521Z,10.46
2019-02-20T11:02:42.917Z,11.03
2019-02-20T11:05:09.780Z,11.55
2019-02-20T11:07:36.605Z,11.75
2019-02-20T11:10:03.707Z,11.67
2019-02-20T11:12:30.531Z,12.05
2019-02-20T11:14:57.367Z,12.10
2019-02-20T11:17:24.226Z,12.21
2019-02-20T11:19:51.064Z,12.06
2019-02-20T11:22:17.918Z,11.54
2019-02-20T11:24:44.758Z,11.53
2019-02-20T11:27:11.611Z,11.99
2019-02-20T11:29:38.438Z,12.22
2019-02-20T11:32:05.954Z,11.84
2019-02-20T11:34:32.793Z,11.89
2019-02-20T11:36:59.760Z,11.99
2019-02-20T11:39:26.564Z,12.38
2019-02-20T11:41:53.431Z,12.82
2019-02-20T11:44:21.232Z,11.77
2019-02-20T11:46:47.134Z,12.02
2019-02-20T11:49:15.459Z,12.17
2019-02-20T11:51:42.333Z,12.44
2019-02-20T11:54:09.175Z,12.37
2019-02-20T11:56:36.057Z,12.80
2019-02-20T11:59:02.896Z,12.94
2019-02-20T12:01:29.753Z,12.92
2019-02-20T12:03:56.582Z,12.44
2019-02-20T12:06:23.443Z,12.26
2019-02-20T12:08:50.272Z,12.01
2019-02-20T12:11:17.119Z,12.53
2019-02-20T12:13:43.950Z,12.86
2019-02-20T12:16:10.822Z,13.29
2019-02-20T12:18:37.772Z,13.12
2019-02-20T12:21:04.654Z,12.57
2019-02-20T12:23:36.676Z,12.93
2019-02-20T12:26:01.418Z,13.12
2019-02-20T12:28:27.048Z,13.06
2019-02-20T12:30:53.961Z,12.39
2019-02-20T12:33:20.807Z,12.21
2019-02-20T12:35:47.935Z,12.43
2019-02-20T12:38:14.775Z,12.70
2019-02-20T12:40:41.627Z,13.13
2019-02-20T12:43:08.450Z,13.25
2019-02-20T12:45:35.374Z,13.01
2019-02-20T12:48:02.262Z,13.22
2019-02-20T12:50:29.493Z,13.84
2019-02-20T12:52:56.337Z,13.36
2019-02-20T12:55:23.170Z,13.33
2019-02-20T12:57:50.030Z,13.26
2019-02-20T13:00:16.894Z,13.05
2019-02-20T13:02:43.742Z,12.68
2019-02-20T13:05:10.687Z,13.18
2019-02-20T13:07:37.577Z,13.45
2019-02-20T13:10:04.446Z,12.90
2019-02-20T13:12:31.284Z,12.81
2019-02-20T13:14:58.157Z,13.00
2019-02-20T13:17:25.326Z,13.46
2019-02-20T13:19:52.181Z,13.14
2019-02-20T13:22:19.038Z,12.51
2019-02-20T13:24:45.874Z,12.69
2019-02-20T13:27:12.745Z,12.65
2019-02-20T13:29:39.742Z,13.04
2019-02-20T13:32:06.630Z,13.28
2019-02-20T13:34:33.495Z,13.01
2019-02-20T13:37:00.548Z,13.01
2019-02-20T13:39:27.351Z,13.12
2019-02-20T13:41:54.218Z,12.84
2019-02-20T13:44:21.087Z,12.78
2019-02-20T13:46:47.927Z,13.26
2019-02-20T13:49:15.771Z,13.45
2019-02-20T13:51:42.644Z,13.25
2019-02-20T13:54:09.474Z,13.33
2019-02-20T13:56:36.340Z,13.32
2019-02-20T13:59:03.210Z,13.46
2019-02-20T14:01:30.075Z,13.34
2019-02-20T14:03:56.933Z,13.54
2019-02-20T14:06:23.803Z,13.17
2019-02-20T14:08:50.654Z,13.41
2019-02-20T14:11:17.502Z,13.52
2019-02-20T14:13:44.352Z,13.89
2019-02-20T14:16:11.216Z,13.96
2019-02-20T14:18:38.055Z,13.89
2019-02-20T14:21:04.917Z,14.02
2019-02-20T14:23:31.752Z,13.80
2019-02-20T14:25:58.640Z,13.43
2019-02-20T14:28:25.482Z,13.96
2019-02-20T14:30:52.334Z,13.72
2019-02-20T14:33:19.180Z,13.59
2019-02-20T14:35:46.078Z,13.48
2019-02-20T14:38:12.934Z,13.46
2019-02-20T14:40:39.782Z,13.18
2019-02-20T14:43:07.246Z,13.08
2019-02-20T14:45:34.207Z,13.06
2019-02-20T14:48:01.143Z,12.89
2019-02-20T14:50:27.974Z,13.23
2019-02-20T14:52:54.858Z,13.47
2019-02-20T14:55:21.839Z,13.98
2019-02-20T14:57:48.686Z,13.63
2019-02-20T15:00:15.523Z,13.44
2019-02-20T15:02:42.396Z,13.46
2019-02-20T15:05:09.250Z,13.49
2019-02-20T15:07:36.118Z,13.84
2019-02-20T15:10:03.001Z,13.49
2019-02-20T15:12:29.870Z,13.45
2019-02-20T15:14:56.702Z,13.45
2019-02-20T15:17:24.994Z,13.45
2019-02-20T15:19:53.609Z,13.72
2019-02-20T15:22:20.510Z,13.54
2019-02-20T15:24:47.354Z,13.37
2019-02-20T15:27:14.238Z,13.08
2019-02-20T15:29:41.070Z,13.81
2019-02-20T15:32:07.986Z,13.51
2019-02-20T15:34:34.823Z,13.38
2019-02-20T15:37:01.711Z,13.19
2019-02-20T15:39:28.540Z,13.51
2019-02-20T15:41:55.390Z,13.03
2019-02-20T15:44:22.222Z,13.08
2019-02-20T15:46:49.080Z,13.25
2019-02-20T15:49:16.422Z,13.17
2019-02-20T15:51:43.272Z,12.93
2019-02-20T15:54:10.098Z,13.03
2019-02-20T15:56:37.102Z,13.01
2019-02-20T15:59:03.930Z,13.13
2019-02-20T16:01:30.766Z,12.99
2019-02-20T16:03:57.663Z,12.56
2019-02-20T16:06:24.455Z,12.64
2019-02-20T16:08:51.310Z,12.80
2019-02-20T16:11:18.171Z,12.67
2019-02-20T16:13:45.026Z,12.49
2019-02-20T16:16:11.859Z,12.52
2019-02-20T16:18:38.706Z,12.55
2019-02-20T16:21:05.550Z,12.36
2019-02-20T16:23:32.420Z,12.48
2019-02-20T16:25:59.250Z,12.60
2019-02-20T16:28:33.563Z,12.47
2019-02-20T16:30:53.058Z,12.42
2019-02-20T16:33:19.915Z,12.44
2019-02-20T16:35:48.344Z,12.25
2019-02-20T16:38:13.602Z,11.96
2019-02-20T16:40:40.438Z,11.86
2019-02-20T16:43:07.298Z,11.73
2019-02-20T16:45:34.130Z,11.68
2019-02-20T16:48:00.983Z,11.66
2019-02-20T16:50:27.819Z,11.83
2019-02-20T16:52:54.674Z,11.97
2019-02-20T16:55:22.727Z,11.85
2019-02-20T16:57:56.220Z,11.96
2019-02-20T17:00:15.535Z,11.88
2019-02-20T17:02:42.502Z,11.79
2019-02-20T17:05:13.481Z,11.75
2019-02-20T17:07:36.639Z,11.79
2019-02-20T17:10:03.819Z,11.81
2019-02-20T17:12:30.681Z,11.84
2019-02-20T17:14:57.527Z,11.79
2019-02-20T17:17:24.409Z,11.79
2019-02-20T17:19:51.261Z,11.75
2019-02-20T17:22:18.098Z,11.66
2019-02-20T17:24:44.946Z,12.29
2019-02-20T17:27:11.787Z,11.85
2019-02-20T17:29:38.642Z,11.83
2019-02-20T17:32:05.474Z,11.71
2019-02-20T17:34:32.331Z,11.63
2019-02-20T17:36:59.185Z,11.50
2019-02-20T17:39:26.127Z,11.39
2019-02-20T17:41:52.966Z,11.22
2019-02-20T17:44:19.841Z,11.13
2019-02-20T17:46:46.674Z,10.96
2019-02-20T17:49:13.518Z,11.04
2019-02-20T17:51:40.366Z,10.80
2019-02-20T17:54:07.268Z,11.16
2019-02-20T17:56:34.086Z,10.85
2019-02-20T17:59:00.959Z,10.91
2019-02-20T18:01:27.789Z,10.86
2019-02-20T18:03:54.707Z,10.75
2019-02-20T18:06:21.535Z,10.81
2019-02-20T18:08:48.398Z,10.79
2019-02-20T18:11:15.264Z,10.60
2019-02-20T18:13:42.117Z,10.68
2019-02-20T18:16:08.962Z,10.75
2019-02-20T18:18:35.834Z,10.73
2019-02-20T18:21:02.666Z,10.73
2019-02-20T18:23:29.507Z,11.08
2019-02-20T18:25:56.357Z,10.72
2019-02-20T18:28:24.722Z,10.59
2019-02-20T18:30:50.040Z,10.67
2019-02-20T18:33:16.870Z,10.25
2019-02-20T18:35:43.737Z,10.27
2019-02-20T18:38:10.632Z,10.10
2019-02-20T18:40:37.524Z,10.65
2019-02-20T18:43:04.383Z,10.40
2019-02-20T18:45:31.222Z,10.80
2019-02-20T18:47:58.063Z,10.26
2019-02-20T18:50:24.918Z,10.31
2019-02-20T18:52:51.746Z,10.20
2019-02-20T18:55:18.618Z,9.96
2019-02-20T18:57:45.459Z,9.44
2019-02-20T19:00:13.385Z,9.39
2019-02-20T19:02:40.216Z,9.50
2019-02-20T19:05:07.164Z,10.16
2019-02-20T19:07:34.085Z,9.76
2019-02-20T19:10:00.951Z,9.74
2019-02-20T19:12:46.567Z,9.33
2019-02-20T19:15:24.697Z,9.94
2019-02-20T19:18:03.831Z,9.53
2019-02-20T19:20:41.565Z,9.41
2019-02-20T19:23:35.969Z,9.40
2019-02-20T19:26:15.126Z,9.41
2019-02-20T19:29:22.337Z,9.87
2019-02-20T19:32:05.995Z,9.18
2019-02-20T19:34:51.743Z,9.00
2019-02-20T19:37:44.859Z,8.96
2019-02-20T19:40:38.131Z,9.13
2019-02-20T19:43:32.881Z,9.70
2019-02-20T19:46:21.036Z,9.31
2019-02-20T19:48:58.965Z,8.95
2019-02-20T19:51:38.125Z,8.85
2019-02-20T19:54:42.088Z,8.64
2019-02-20T19:57:35.302Z,8.70
2019-02-20T20:00:16.557Z,8.54
2019-02-20T20:02:55.093Z,8.48
2019-02-20T20:06:03.912Z,8.28
2019-02-20T20:08:46.924Z,8.25
2019-02-20T20:11:25.557Z,7.85
2019-02-20T20:14:10.700Z,8.66
2019-02-20T20:17:20.270Z,8.07
2019-02-20T20:19:57.801Z,8.46
2019-02-20T20:22:39.288Z,8.46
2019-02-20T20:25:14.998Z,8.49
2019-02-20T20:27:59.953Z,8.50
2019-02-20T20:30:44.148Z,8.17
2019-02-20T20:33:28.709Z,8.00
2019-02-20T20:36:23.040Z,7.83
2019-02-20T20:39:08.221Z,7.80
2019-02-20T20:41:51.042Z,7.85
2019-02-20T20:44:46.634Z,7.95
2019-02-20T20:47:42.495Z,7.88
2019-02-20T20:50:41.066Z,7.99
2019-02-20T20:53:21.779Z,7.98
2019-02-20T20:56:15.614Z,7.77
2019-02-20T20:58:52.269Z,7.77
2019-02-20T21:01:46.663Z,8.19
2019-02-20T21:04:44.808Z,8.47
2019-02-20T21:07:24.903Z,7.87
2019-02-20T21:10:06.559Z,7.87
2019-02-20T21:12:44.942Z,7.78
2019-02-20T21:15:32.605Z,7.89
2019-02-20T21:18:36.715Z,7.68
2019-02-20T21:21:33.280Z,7.51
2019-02-20T21:24:29.715Z,7.50
2019-02-20T21:27:06.666Z,7.91
2019-02-20T21:30:03.131Z,7.24
2019-02-20T21:32:40.493Z,6.79
2019-02-20T21:35:20.759Z,7.53
2019-02-20T21:38:17.997Z,6.73
2019-02-20T21:40:57.939Z,6.51
2019-02-20T21:43:45.581Z,6.40
2019-02-20T21:46:24.989Z,6.40
2019-02-20T21:49:07.977Z,6.30
2019-02-20T21:52:02.322Z,6.10
2019-02-20T21:54:49.766Z,6.07
2019-02-20T21:57:22.482Z,6.18
2019-02-20T22:00:16.530Z,6.58
2019-02-20T22:02:57.133Z,6.19
2019-02-20T22:06:04.490Z,5.84
2019-02-20T22:08:51.330Z,5.91
2019-02-20T22:11:40.890Z,5.88
2019-02-20T22:14:36.970Z,5.92
2019-02-20T22:17:31.254Z,6.16
2019-02-20T22:20:32.458Z,5.41
2019-02-20T22:23:14.494Z,5.07
2019-02-20T22:25:57.906Z,5.25
2019-02-20T22:28:38.265Z,5.46
2019-02-20T22:31:31.292Z,5.45
2019-02-20T22:34:05.697Z,5.62
2019-02-20T22:36:58.014Z,5.81
2019-02-20T22:39:49.017Z,5.87
2019-02-20T22:42:43.689Z,5.98
2019-02-20T22:45:33.556Z,5.77
2019-02-20T22:48:17.591Z,5.65
2019-02-20T22:51:11.339Z,5.53
2019-02-20T22:53:58.073Z,5.54
2019-02-20T22:56:54.159Z,5.57
2019-02-20T22:59:48.499Z,5.67
2019-02-20T23:02:48.309Z,5.73
2019-02-20T23:05:43.783Z,5.43
2019-02-20T23:08:28.775Z,5.49
2019-02-20T23:11:26.010Z,4.94
2019-02-20T23:14:09.947Z,5.43
2019-02-20T23:16:36.871Z,4.94
2019-02-20T23:19:03.738Z,5.01
2019-02-20T23:21:30.582Z,4.82
2019-02-20T23:23:57.674Z,4.88
2019-02-20T23:26:24.516Z,5.32
2019-02-20T23:28:51.366Z,4.74
2019-02-20T23:31:18.209Z,4.45
2019-02-20T23:33:45.078Z,4.35
2019-02-20T23:36:11.918Z,4.41
2019-02-20T23:38:38.782Z,4.39
2019-02-20T23:41:05.633Z,4.25
2019-02-20T23:43:32.496Z,4.19
2019-02-20T23:45:59.461Z,4.27
2019-02-20T23:48:26.319Z,4.85
2019-02-20T23:50:53.158Z,4.46
2019-02-20T23:53:20.056Z,4.61
2019-02-20T23:55:46.928Z,4.48
2019-02-20T23:58:13.786Z,4.51
